Time;durP1;ratioP1;P1;durP2;ratioP2;P2;SDS_P1;SDS_P2;PMS_P1;PMS_P2;Temp;Humidity;BMP_temperature;BMP_pressure;BME280_temperature;BME280_humidity;BME280_pressure;Samples;Min_cycle;Max_cycle;Signal;HPM_P1;HPM_P2
2023/09/25 00:01:21;;;;;;;2.20;2.00;;;11.50;92.50;;;;;;5100513;27;21272;-75
2023/09/25 00:03:48;;;;;;;2.30;1.57;;;11.40;92.50;;;;;;5101535;27;21242;-74
2023/09/25 00:06:15;;;;;;;2.20;2.00;;;11.50;92.60;;;;;;5102318;27;20713;-75
2023/09/25 00:08:41;;;;;;;4.00;2.07;;;11.50;92.80;;;;;;5093847;27;20634;-75
2023/09/25 00:11:09;;;;;;;3.03;2.03;;;11.50;92.50;;;;;;5100363;27;20654;-75
2023/09/25 00:13:37;;;;;;;2.23;1.93;;;11.50;92.50;;;;;;5107271;27;20640;-75
2023/09/25 00:16:04;;;;;;;1.73;1.63;;;11.40;92.80;;;;;;5086012;27;21256;-75
2023/09/25 00:18:31;;;;;;;2.20;2.00;;;11.30;93.00;;;;;;5096428;27;20673;-75
2023/09/25 00:20:58;;;;;;;2.10;2.00;;;11.40;92.90;;;;;;5101499;27;20622;-75
2023/09/25 00:23:25;;;;;;;5.00;2.50;;;11.30;92.70;;;;;;5102580;27;20639;-76
2023/09/25 00:25:51;;;;;;;2.23;2.00;;;11.20;92.80;;;;;;5105192;27;20978;-75
2023/09/25 00:28:20;;;;;;;2.60;2.33;;;11.20;93.40;;;;;;5096477;27;20620;-75
2023/09/25 00:30:46;;;;;;;2.53;2.00;;;11.10;93.50;;;;;;5087714;27;20630;-75
2023/09/25 00:33:13;;;;;;;2.40;2.20;;;11.10;93.40;;;;;;5101369;27;20617;-75
2023/09/25 00:35:42;;;;;;;1.97;1.80;;;11.10;93.80;;;;;;5099718;27;20642;-75
2023/09/25 00:38:09;;;;;;;1.60;1.50;;;11.10;93.80;;;;;;5101423;27;20648;-75
2023/09/25 00:40:36;;;;;;;2.17;1.90;;;11.00;94.00;;;;;;5091770;27;20645;-75
2023/09/25 00:43:04;;;;;;;2.93;2.57;;;10.90;94.40;;;;;;5091431;27;20722;-75
2023/09/25 00:45:36;;;;;;;2.30;2.10;;;10.70;94.90;;;;;;5100970;27;20676;-75
2023/09/25 00:48:04;;;;;;;2.40;1.87;;;10.50;95.40;;;;;;5096574;27;20640;-75
2023/09/25 00:50:31;;;;;;;2.23;1.77;;;10.40;96.00;;;;;;5094233;27;20633;-76
2023/09/25 00:53:06;;;;;;;4.73;2.00;;;10.30;96.30;;;;;;5109069;27;20955;-75
2023/09/25 00:55:34;;;;;;;2.40;2.20;;;10.20;96.40;;;;;;5099971;27;20777;-75
2023/09/25 00:58:02;;;;;;;3.27;2.27;;;10.00;96.60;;;;;;5103217;27;20658;-75
2023/09/25 01:00:28;;;;;;;3.97;2.30;;;9.90;97.60;;;;;;5100846;27;21910;-76
2023/09/25 01:02:56;;;;;;;2.10;1.87;;;9.90;97.80;;;;;;5090350;27;20628;-76
2023/09/25 01:05:23;;;;;;;2.83;1.50;;;10.00;97.50;;;;;;5105780;27;20705;-75
2023/09/25 01:07:50;;;;;;;2.07;1.87;;;10.00;97.30;;;;;;5094192;27;20604;-75
2023/09/25 01:10:19;;;;;;;2.70;1.47;;;9.90;98.00;;;;;;5101079;27;21203;-76
2023/09/25 01:12:52;;;;;;;5.90;2.40;;;9.80;98.10;;;;;;5095752;27;20689;-75
2023/09/25 01:15:21;;;;;;;1.73;1.63;;;9.60;98.20;;;;;;5095933;27;20748;-75
2023/09/25 01:17:49;;;;;;;3.60;2.50;;;9.60;98.90;;;;;;5108469;27;21018;-75
2023/09/25 01:20:18;;;;;;;3.07;1.90;;;9.50;99.00;;;;;;5098875;27;20624;-75
2023/09/25 01:22:49;;;;;;;3.30;1.90;;;9.40;99.20;;;;;;5076994;28;20636;-75
2023/09/25 01:25:18;;;;;;;2.77;1.60;;;9.40;99.20;;;;;;5100293;27;20628;-75
2023/09/25 01:27:47;;;;;;;1.30;1.20;;;9.30;99.40;;;;;;5099562;27;20607;-75
2023/09/25 01:30:16;;;;;;;2.43;1.70;;;9.20;99.60;;;;;;5082759;27;20833;-75
2023/09/25 01:32:44;;;;;;;1.80;1.47;;;9.20;99.90;;;;;;5096345;27;21223;-74
2023/09/25 01:35:14;;;;;;;3.17;2.00;;;9.20;99.90;;;;;;5100033;27;20625;-74
2023/09/25 01:37:41;;;;;;;3.07;2.00;;;9.20;99.90;;;;;;5092191;27;20651;-75
2023/09/25 01:40:15;;;;;;;2.53;1.70;;;9.30;99.70;;;;;;5106164;27;20627;-75
2023/09/25 01:42:44;;;;;;;1.63;1.53;;;9.40;99.10;;;;;;5081003;28;20627;-75
2023/09/25 01:45:13;;;;;;;2.00;1.67;;;9.50;98.40;;;;;;5089284;27;21259;-74
2023/09/25 01:47:42;;;;;;;2.50;2.30;;;9.60;97.80;;;;;;5099433;27;20696;-74
2023/09/25 01:50:11;;;;;;;2.50;1.60;;;9.60;97.50;;;;;;5092939;27;21111;-74
2023/09/25 01:52:42;;;;;;;2.90;2.10;;;9.60;97.70;;;;;;5083546;27;20715;-74
2023/09/25 01:55:12;;;;;;;1.90;1.80;;;9.60;97.60;;;;;;5103240;27;20624;-75
2023/09/25 01:57:40;;;;;;;3.30;2.33;;;9.70;98.10;;;;;;5100231;27;21026;-75
2023/09/25 02:00:09;;;;;;;2.30;1.73;;;9.70;98.10;;;;;;5083767;28;20633;-75
2023/09/25 02:02:36;;;;;;;2.33;1.63;;;9.60;97.90;;;;;;5088529;27;20616;-75
2023/09/25 02:05:03;;;;;;;2.90;1.90;;;9.60;97.90;;;;;;5102529;27;20611;-75
2023/09/25 02:07:30;;;;;;;1.77;1.60;;;9.60;97.50;;;;;;5081281;28;20645;-74
2023/09/25 02:09:57;;;;;;;1.77;1.63;;;9.40;97.40;;;;;;5094825;27;20619;-74
2023/09/25 02:12:26;;;;;;;1.20;1.13;;;9.40;97.90;;;;;;5098067;27;21199;-74
2023/09/25 02:14:54;;;;;;;2.67;1.80;;;9.20;98.00;;;;;;5102038;27;20631;-75
2023/09/25 02:17:22;;;;;;;3.00;2.03;;;9.20;98.50;;;;;;5105282;27;20648;-75
2023/09/25 02:19:50;;;;;;;2.00;1.80;;;9.20;99.00;;;;;;5101030;27;21283;-75
2023/09/25 02:22:18;;;;;;;2.17;2.00;;;9.10;99.30;;;;;;5089656;27;21011;-75
2023/09/25 02:24:46;;;;;;;1.67;1.57;;;9.00;99.60;;;;;;5092125;27;21590;-75
2023/09/25 02:27:14;;;;;;;2.13;1.93;;;8.90;99.90;;;;;;5100556;27;20634;-74
2023/09/25 02:29:43;;;;;;;2.30;1.70;;;8.80;99.90;;;;;;5104390;27;20635;-74
2023/09/25 02:32:10;;;;;;;2.13;1.73;;;8.80;99.90;;;;;;5106997;27;20642;-74
2023/09/25 02:34:37;;;;;;;2.83;2.43;;;8.90;99.90;;;;;;5097955;27;20638;-75
2023/09/25 02:37:04;;;;;;;2.77;2.10;;;8.90;99.90;;;;;;5098599;27;21204;-75
2023/09/25 02:39:31;;;;;;;1.97;1.87;;;8.80;99.90;;;;;;5093259;27;20705;-75
2023/09/25 02:42:00;;;;;;;1.90;1.80;;;8.80;99.90;;;;;;5098645;27;20726;-76
2023/09/25 02:44:27;;;;;;;2.70;1.87;;;8.80;99.90;;;;;;5082043;27;20643;-75
2023/09/25 02:46:55;;;;;;;2.10;1.80;;;8.70;99.70;;;;;;5095923;27;20635;-75
2023/09/25 02:49:23;;;;;;;1.80;1.67;;;8.70;99.90;;;;;;5097349;27;20647;-75
2023/09/25 02:51:51;;;;;;;2.30;2.10;;;8.70;99.90;;;;;;5100446;27;20608;-75
2023/09/25 02:54:20;;;;;;;1.77;1.40;;;8.60;99.90;;;;;;5101126;27;20695;-75
2023/09/25 02:56:48;;;;;;;2.93;2.07;;;8.60;99.90;;;;;;5081271;28;21236;-74
2023/09/25 02:59:15;;;;;;;1.90;1.70;;;8.60;99.90;;;;;;5095314;27;20658;-76
2023/09/25 03:01:43;;;;;;;1.77;1.60;;;8.50;99.90;;;;;;5097819;27;20624;-76
2023/09/25 03:04:12;;;;;;;1.70;1.60;;;8.30;99.90;;;;;;5098662;27;21328;-76
2023/09/25 03:06:39;;;;;;;4.00;2.30;;;8.20;99.90;;;;;;5092777;27;20624;-76
2023/09/25 03:09:08;;;;;;;1.70;1.60;;;8.20;99.90;;;;;;5094930;27;20624;-76
2023/09/25 03:11:36;;;;;;;1.80;1.70;;;8.20;99.90;;;;;;5095486;27;20719;-75
2023/09/25 03:14:04;;;;;;;2.23;2.03;;;8.10;99.90;;;;;;5095663;27;20663;-76
2023/09/25 03:16:32;;;;;;;6.20;2.30;;;8.10;99.90;;;;;;5093308;27;20629;-75
2023/09/25 03:18:59;;;;;;;3.10;2.03;;;8.20;99.90;;;;;;5104628;27;21261;-76
2023/09/25 03:21:29;;;;;;;2.40;2.20;;;8.20;99.90;;;;;;5105146;28;20667;-75
2023/09/25 03:23:56;;;;;;;2.70;1.70;;;8.20;99.90;;;;;;5089600;28;20630;-76
2023/09/25 03:26:24;;;;;;;1.63;1.53;;;8.20;99.90;;;;;;5097103;27;20622;-76
2023/09/25 03:28:52;;;;;;;3.00;1.67;;;8.10;99.90;;;;;;5106560;27;20647;-76
2023/09/25 03:31:19;;;;;;;3.27;2.40;;;8.10;99.90;;;;;;5107064;27;20728;-76
2023/09/25 03:33:47;;;;;;;2.50;2.27;;;8.10;99.90;;;;;;5105305;27;20624;-75
2023/09/25 03:36:15;;;;;;;2.90;2.60;;;8.10;99.90;;;;;;5094773;27;20699;-76
2023/09/25 03:38:44;;;;;;;3.00;2.80;;;8.20;99.90;;;;;;5088236;28;20688;-75
2023/09/25 03:41:15;;;;;;;1.77;1.67;;;8.00;99.90;;;;;;5092629;27;20713;-75
2023/09/25 03:43:42;;;;;;;2.43;2.00;;;8.00;99.90;;;;;;5103602;27;20623;-76
2023/09/25 03:46:09;;;;;;;2.28;2.08;;;8.00;99.90;;;;;;5087808;27;20707;-75
2023/09/25 03:48:36;;;;;;;2.47;2.00;;;7.90;99.90;;;;;;5085984;28;20500;-75
2023/09/25 03:51:03;;;;;;;3.10;2.03;;;7.80;99.90;;;;;;5095891;27;20620;-75
2023/09/25 03:53:30;;;;;;;2.13;1.60;;;7.80;99.90;;;;;;5095840;27;20620;-75
2023/09/25 03:55:58;;;;;;;2.13;1.93;;;7.80;99.90;;;;;;5106122;27;20639;-76
2023/09/25 03:58:25;;;;;;;2.10;1.83;;;7.80;99.90;;;;;;5084293;27;20687;-75
2023/09/25 04:00:52;;;;;;;2.67;2.00;;;7.70;99.90;;;;;;5097782;27;20201;-76
2023/09/25 04:03:19;;;;;;;2.77;1.80;;;7.80;99.90;;;;;;5101854;27;21337;-76
2023/09/25 04:05:46;;;;;;;2.13;1.93;;;7.70;99.90;;;;;;5090246;27;20994;-76
2023/09/25 04:08:13;;;;;;;2.80;1.90;;;7.80;99.90;;;;;;5106575;27;20624;-76
2023/09/25 04:10:44;;;;;;;2.03;1.80;;;7.80;99.90;;;;;;5082797;28;21001;-75
2023/09/25 04:13:12;;;;;;;2.57;1.80;;;7.80;99.90;;;;;;5098178;27;20679;-76
2023/09/25 04:15:40;;;;;;;3.08;1.90;;;7.70;99.90;;;;;;5099063;27;20628;-77
2023/09/25 04:18:08;;;;;;;1.53;1.43;;;7.70;99.90;;;;;;5102002;27;20225;-75
2023/09/25 04:20:35;;;;;;;1.60;1.50;;;7.70;99.90;;;;;;5105690;27;20657;-76
2023/09/25 04:23:03;;;;;;;2.20;1.87;;;7.70;99.90;;;;;;5090468;27;20280;-75
2023/09/25 04:25:31;;;;;;;2.03;1.88;;;7.70;99.90;;;;;;5095267;27;21121;-76
2023/09/25 04:27:58;;;;;;;3.17;1.65;;;7.70;99.90;;;;;;5097603;27;20309;-76
2023/09/25 04:30:27;;;;;;;2.30;2.10;;;7.60;99.90;;;;;;5106701;27;20210;-76
2023/09/25 04:32:54;;;;;;;2.70;1.80;;;7.60;99.90;;;;;;5099735;27;20217;-76
2023/09/25 04:35:22;;;;;;;2.50;1.55;;;7.60;99.90;;;;;;5095513;27;20632;-76
2023/09/25 04:37:49;;;;;;;1.80;1.70;;;7.70;99.90;;;;;;5090142;27;20286;-76
2023/09/25 04:40:22;;;;;;;4.22;2.25;;;7.70;99.90;;;;;;5098695;27;20202;-75
2023/09/25 04:42:50;;;;;;;2.13;1.90;;;7.70;99.90;;;;;;5107048;27;20215;-75
2023/09/25 04:45:18;;;;;;;2.38;2.17;;;7.70;99.90;;;;;;5104614;27;20241;-76
2023/09/25 04:47:47;;;;;;;1.80;1.60;;;7.70;99.90;;;;;;5090089;27;20213;-77
2023/09/25 04:50:14;;;;;;;2.97;2.05;;;8.00;99.90;;;;;;5087424;27;20221;-77
2023/09/25 04:52:42;;;;;;;2.53;1.95;;;8.00;99.90;;;;;;5093222;27;20621;-77
2023/09/25 04:55:11;;;;;;;2.87;2.10;;;8.00;99.90;;;;;;5108564;27;20225;-77
2023/09/25 04:57:39;;;;;;;2.40;2.20;;;8.00;99.90;;;;;;5094288;27;20630;-77
2023/09/25 05:00:13;;;;;;;2.13;1.65;;;8.00;99.90;;;;;;5085844;27;20207;-77
2023/09/25 05:02:40;;;;;;;2.10;1.90;;;8.00;99.90;;;;;;5071604;28;20684;-76
2023/09/25 05:05:09;;;;;;;2.92;2.08;;;7.90;99.90;;;;;;5093673;27;20207;-77
2023/09/25 05:07:36;;;;;;;2.40;1.90;;;7.80;99.90;;;;;;5100412;27;20208;-75
2023/09/25 05:10:04;;;;;;;3.63;2.00;;;7.80;99.90;;;;;;5105988;27;21040;-76
2023/09/25 05:12:30;;;;;;;3.37;2.07;;;7.70;99.90;;;;;;5081951;27;20733;-75
2023/09/25 05:14:57;;;;;;;2.92;2.17;;;7.70;99.90;;;;;;5096255;27;20628;-75
2023/09/25 05:17:24;;;;;;;2.45;1.80;;;7.70;99.90;;;;;;5099703;27;20198;-75
2023/09/25 05:19:51;;;;;;;1.63;1.53;;;7.70;99.90;;;;;;5101288;27;20245;-76
2023/09/25 05:22:19;;;;;;;2.57;2.37;;;7.70;99.90;;;;;;5104170;27;20639;-75
2023/09/25 05:24:46;;;;;;;1.63;1.52;;;7.60;99.90;;;;;;5090298;27;20628;-75
2023/09/25 05:27:13;;;;;;;5.63;2.47;;;7.70;99.90;;;;;;5098035;27;20689;-75
2023/09/25 05:29:40;;;;;;;2.53;1.60;;;7.60;99.90;;;;;;5083933;28;20376;-75
2023/09/25 05:32:07;;;;;;;3.38;2.13;;;7.50;99.90;;;;;;5089292;27;21531;-76
2023/09/25 05:34:34;;;;;;;2.05;1.35;;;7.60;99.90;;;;;;5103209;27;20207;-76
2023/09/25 05:37:00;;;;;;;3.00;2.07;;;7.50;99.90;;;;;;5084518;27;20215;-76
2023/09/25 05:39:31;;;;;;;3.77;2.33;;;7.50;99.90;;;;;;5092696;27;20655;-75
2023/09/25 05:41:57;;;;;;;2.50;2.30;;;7.50;99.90;;;;;;5099215;27;20979;-76
2023/09/25 05:44:24;;;;;;;4.33;1.93;;;7.50;99.90;;;;;;5092516;27;20207;-75
2023/09/25 05:46:51;;;;;;;2.03;1.87;;;7.60;99.90;;;;;;5102216;27;20654;-75
2023/09/25 05:49:18;;;;;;;1.70;1.50;;;7.60;99.90;;;;;;5082997;27;21370;-75
2023/09/25 05:51:53;;;;;;;2.90;2.40;;;7.60;99.90;;;;;;5094508;27;20948;-76
2023/09/25 05:54:20;;;;;;;3.05;2.10;;;7.60;99.90;;;;;;5096629;27;20723;-76
2023/09/25 05:56:48;;;;;;;3.45;2.75;;;7.70;99.90;;;;;;5087196;27;20305;-75
2023/09/25 05:59:17;;;;;;;3.80;3.03;;;7.70;99.90;;;;;;5101770;27;20610;-76
2023/09/25 06:01:44;;;;;;;2.28;2.08;;;7.70;99.90;;;;;;5082147;28;21212;-75
2023/09/25 06:04:12;;;;;;;4.80;2.90;;;7.90;99.90;;;;;;5095262;27;20202;-76
2023/09/25 06:06:39;;;;;;;1.95;1.85;;;7.80;99.90;;;;;;5098276;27;20636;-75
2023/09/25 06:09:15;;;;;;;3.60;2.87;;;7.90;99.90;;;;;;5094365;27;20198;-76
2023/09/25 06:11:43;;;;;;;2.73;2.30;;;8.00;99.90;;;;;;5096220;27;20619;-75
2023/09/25 06:14:12;;;;;;;2.87;2.00;;;8.10;99.90;;;;;;5097871;27;20642;-76
2023/09/25 06:16:40;;;;;;;3.80;2.57;;;8.20;99.90;;;;;;5088372;27;20617;-75
2023/09/25 06:19:08;;;;;;;4.97;2.60;;;8.30;99.90;;;;;;5096752;27;21238;-75
2023/09/25 06:21:35;;;;;;;5.07;2.40;;;8.40;99.90;;;;;;5093817;27;20627;-76
2023/09/25 06:24:04;;;;;;;2.07;1.97;;;8.50;99.90;;;;;;5096643;27;20624;-76
2023/09/25 06:26:31;;;;;;;3.37;2.70;;;8.50;99.90;;;;;;5078162;27;20635;-75
2023/09/25 06:28:58;;;;;;;2.70;2.40;;;8.60;99.90;;;;;;5090615;27;20617;-76
2023/09/25 06:31:29;;;;;;;4.60;3.00;;;8.70;99.90;;;;;;5098299;27;20922;-76
2023/09/25 06:33:56;;;;;;;3.80;3.17;;;8.90;99.90;;;;;;5099848;27;20638;-76
2023/09/25 06:36:23;;;;;;;3.53;2.50;;;9.00;99.90;;;;;;5099295;27;22610;-79
2023/09/25 06:38:50;;;;;;;3.77;3.40;;;9.10;99.90;;;;;;5078411;28;21037;-76
2023/09/25 06:41:17;;;;;;;2.80;2.53;;;9.20;99.90;;;;;;5101807;27;20624;-76
2023/09/25 06:43:44;;;;;;;3.77;2.47;;;9.40;99.90;;;;;;5095875;27;20720;-76
2023/09/25 06:46:10;;;;;;;3.10;2.83;;;9.60;99.90;;;;;;5087397;27;20627;-77
2023/09/25 06:48:39;;;;;;;2.80;2.57;;;9.80;99.90;;;;;;5086898;27;21458;-76
2023/09/25 06:51:06;;;;;;;3.80;3.13;;;10.00;99.90;;;;;;5083719;27;20665;-76
2023/09/25 06:53:33;;;;;;;5.40;3.20;;;10.20;99.90;;;;;;5083698;27;20657;-77
2023/09/25 06:56:00;;;;;;;3.20;2.70;;;10.50;99.90;;;;;;5096902;27;20628;-76
2023/09/25 06:58:27;;;;;;;4.50;2.87;;;10.70;99.90;;;;;;5086333;27;20623;-76
2023/09/25 07:00:54;;;;;;;2.60;2.40;;;10.90;99.90;;;;;;5086270;27;20630;-76
2023/09/25 07:03:21;;;;;;;3.80;2.93;;;11.10;99.90;;;;;;5079188;27;20628;-76
2023/09/25 07:05:51;;;;;;;3.87;1.93;;;11.30;99.90;;;;;;5093916;27;20630;-77
2023/09/25 07:08:19;;;;;;;2.60;2.33;;;11.50;99.20;;;;;;5095399;27;20623;-77
2023/09/25 07:10:48;;;;;;;2.80;2.13;;;11.70;98.60;;;;;;5090798;27;20637;-76
2023/09/25 07:13:25;;;;;;;2.60;2.30;;;11.80;98.60;;;;;;5082728;27;20999;-76
2023/09/25 07:15:52;;;;;;;3.40;2.73;;;12.00;98.70;;;;;;5099159;27;20631;-77
2023/09/25 07:18:19;;;;;;;3.70;3.10;;;12.20;98.10;;;;;;5087936;27;20623;-77
2023/09/25 07:20:55;;;;;;;1.87;1.77;;;12.40;97.60;;;;;;5098048;27;20631;-77
2023/09/25 07:23:22;;;;;;;2.70;2.40;;;12.50;96.80;;;;;;5099655;28;20623;-77
2023/09/25 07:25:49;;;;;;;3.07;1.93;;;12.60;96.80;;;;;;5103838;28;20624;-77
2023/09/25 07:28:15;;;;;;;2.90;2.63;;;12.80;96.10;;;;;;5082355;28;20630;-77
2023/09/25 07:30:43;;;;;;;2.60;2.10;;;12.90;95.60;;;;;;5093356;28;20628;-77
2023/09/25 07:33:10;;;;;;;2.40;2.13;;;13.10;95.40;;;;;;5099375;28;20677;-77
2023/09/25 07:35:37;;;;;;;3.73;2.20;;;13.30;94.90;;;;;;5082528;28;20683;-77
2023/09/25 07:38:05;;;;;;;2.60;2.40;;;13.40;94.70;;;;;;5101197;28;20632;-77
2023/09/25 07:40:39;;;;;;;5.03;2.37;;;13.50;94.50;;;;;;5105280;28;20658;-77
2023/09/25 07:43:07;;;;;;;3.00;2.00;;;13.60;94.50;;;;;;5097241;28;21287;-76
2023/09/25 07:45:34;;;;;;;2.97;2.40;;;13.70;94.60;;;;;;5096756;28;22258;-76
2023/09/25 07:48:01;;;;;;;2.47;2.27;;;13.80;95.10;;;;;;5089061;28;20633;-75
2023/09/25 07:50:27;;;;;;;10.03;2.60;;;13.90;94.70;;;;;;5092645;28;21180;-75
2023/09/25 07:52:54;;;;;;;2.60;2.03;;;14.10;94.30;;;;;;5084964;28;21278;-75
2023/09/25 07:55:23;;;;;;;3.27;2.33;;;14.20;93.40;;;;;;5089719;28;20621;-75
2023/09/25 07:57:50;;;;;;;2.97;2.40;;;14.40;93.10;;;;;;5097067;28;21686;-75
2023/09/25 08:00:22;;;;;;;1.70;1.60;;;14.40;93.20;;;;;;5090882;28;20703;-75
2023/09/25 08:02:51;;;;;;;3.70;2.40;;;14.40;92.90;;;;;;5102158;28;20630;-75
2023/09/25 08:05:18;;;;;;;7.23;2.50;;;14.40;92.70;;;;;;5081020;28;20662;-75
2023/09/25 08:07:45;;;;;;;2.77;2.10;;;14.40;93.50;;;;;;5084556;28;21672;-76
2023/09/25 08:10:12;;;;;;;2.23;2.03;;;14.50;93.80;;;;;;5091437;27;20620;-75
2023/09/25 08:12:41;;;;;;;3.97;2.20;;;14.60;93.80;;;;;;5095855;27;20643;-75
2023/09/25 08:15:09;;;;;;;2.40;2.03;;;14.60;93.30;;;;;;5105205;27;20620;-75
2023/09/25 08:17:36;;;;;;;3.03;1.93;;;14.70;93.50;;;;;;5082383;28;20634;-76
2023/09/25 08:20:13;;;;;;;2.00;1.90;;;14.70;93.20;;;;;;5099574;27;20655;-76
2023/09/25 08:22:41;;;;;;;4.80;2.20;;;14.90;93.00;;;;;;5098720;27;20992;-77
2023/09/25 08:25:09;;;;;;;3.03;2.63;;;15.00;92.30;;;;;;5100958;27;20628;-76
2023/09/25 08:27:36;;;;;;;3.13;2.83;;;15.20;91.90;;;;;;5099996;27;20623;-76
2023/09/25 08:30:05;;;;;;;2.57;2.03;;;15.30;92.10;;;;;;5086014;27;20627;-76
2023/09/25 08:32:32;;;;;;;2.47;2.27;;;15.30;91.90;;;;;;5095721;27;20628;-76
2023/09/25 08:34:59;;;;;;;2.73;2.30;;;15.30;92.20;;;;;;5098671;27;20713;-77
2023/09/25 08:37:26;;;;;;;2.50;2.23;;;15.10;92.00;;;;;;5101508;27;21305;-76
2023/09/25 08:39:54;;;;;;;4.10;2.60;;;15.20;92.50;;;;;;5105022;27;20664;-76
2023/09/25 08:42:22;;;;;;;3.20;2.13;;;15.50;91.10;;;;;;5083838;27;20627;-76
2023/09/25 08:44:50;;;;;;;2.90;2.43;;;15.40;91.20;;;;;;5098176;27;20630;-76
2023/09/25 08:47:20;;;;;;;1.83;1.73;;;15.50;91.30;;;;;;5100054;27;20638;-76
2023/09/25 08:49:48;;;;;;;2.77;2.20;;;15.40;91.60;;;;;;5096654;27;20795;-76
2023/09/25 08:52:15;;;;;;;1.93;1.73;;;15.70;91.20;;;;;;5105959;27;21583;-76
2023/09/25 08:54:43;;;;;;;2.10;1.90;;;15.80;91.00;;;;;;5082779;28;20630;-76
2023/09/25 08:57:10;;;;;;;4.07;2.40;;;16.00;90.40;;;;;;5098992;27;20807;-76
2023/09/25 08:59:39;;;;;;;2.63;2.43;;;15.90;91.00;;;;;;5102658;27;20678;-76
2023/09/25 09:02:06;;;;;;;2.70;2.10;;;16.00;89.50;;;;;;5101251;27;20667;-76
2023/09/25 09:04:35;;;;;;;7.90;2.90;;;16.20;88.60;;;;;;5104692;27;20734;-77
2023/09/25 09:07:02;;;;;;;2.40;2.20;;;16.30;86.00;;;;;;5097733;27;20654;-77
2023/09/25 09:09:28;;;;;;;2.57;1.73;;;16.40;88.90;;;;;;5095394;27;20608;-76
2023/09/25 09:11:57;;;;;;;2.63;2.07;;;16.40;87.90;;;;;;5099696;27;20637;-77
2023/09/25 09:14:34;;;;;;;3.17;2.87;;;16.10;87.20;;;;;;5101784;27;20985;-76
2023/09/25 09:17:04;;;;;;;3.30;2.43;;;15.90;89.90;;;;;;5105182;27;20620;-76
2023/09/25 09:19:37;;;;;;;2.93;2.37;;;15.80;90.10;;;;;;5081804;27;20680;-76
2023/09/25 09:22:06;;;;;;;5.20;3.70;;;16.00;90.20;;;;;;5096748;27;20624;-76
2023/09/25 09:24:33;;;;;;;2.00;1.90;;;16.00;90.50;;;;;;5093712;27;20616;-76
2023/09/25 09:27:01;;;;;;;3.23;2.47;;;16.10;90.60;;;;;;5096981;27;20721;-76
2023/09/25 09:29:28;;;;;;;1.93;1.83;;;16.10;89.00;;;;;;5085523;27;20726;-76
2023/09/25 09:31:56;;;;;;;3.60;1.97;;;16.10;89.90;;;;;;5091503;27;20978;-76
2023/09/25 09:34:24;;;;;;;4.93;2.43;;;16.10;89.20;;;;;;5078773;27;20628;-76
2023/09/25 09:36:53;;;;;;;3.30;2.37;;;16.20;88.80;;;;;;5098077;27;20640;-76
2023/09/25 09:39:21;;;;;;;3.00;2.70;;;16.20;89.50;;;;;;5094537;27;20731;-75
2023/09/25 09:41:50;;;;;;;2.63;2.43;;;16.20;88.90;;;;;;5103726;27;20638;-80
2023/09/25 09:44:18;;;;;;;2.37;2.17;;;16.30;88.80;;;;;;5081153;27;20648;-79
2023/09/25 09:46:46;;;;;;;2.93;2.37;;;16.30;87.90;;;;;;5093209;27;20619;-80
2023/09/25 09:49:15;;;;;;;2.87;2.67;;;16.30;87.50;;;;;;5096492;27;21341;-80
2023/09/25 09:51:45;;;;;;;4.07;2.30;;;16.40;89.00;;;;;;5094875;27;20631;-79
2023/09/25 09:54:13;;;;;;;3.80;2.30;;;16.80;89.60;;;;;;5100375;27;20631;-80
2023/09/25 09:56:41;;;;;;;2.43;2.20;;;16.90;89.20;;;;;;5078667;28;20632;-79
2023/09/25 09:59:08;;;;;;;3.03;2.40;;;16.80;87.30;;;;;;5076857;28;20636;-79
2023/09/25 10:01:35;;;;;;;2.67;1.97;;;16.90;88.90;;;;;;5090415;27;20619;-79
2023/09/25 10:04:04;;;;;;;3.33;2.40;;;17.00;87.60;;;;;;5095335;27;21600;-79
2023/09/25 10:06:36;;;;;;;2.90;2.67;;;16.80;86.50;;;;;;5098920;27;20627;-78
2023/09/25 10:09:09;;;;;;;3.53;2.23;;;16.80;88.00;;;;;;5103415;27;20970;-79
2023/09/25 10:11:37;;;;;;;2.17;2.07;;;16.80;86.40;;;;;;5095584;27;21340;-78
2023/09/25 10:14:04;;;;;;;2.37;2.17;;;17.00;86.60;;;;;;5095400;27;21194;-78
2023/09/25 10:16:51;;;;;;;3.03;2.70;;;16.90;86.80;;;;;;5091653;27;21170;-78
2023/09/25 10:19:20;;;;;;;2.60;2.40;;;16.90;87.80;;;;;;5102483;27;20628;-78
2023/09/25 10:22:07;;;;;;;2.20;2.07;;;17.10;87.80;;;;;;5081211;28;20620;-78
2023/09/25 10:24:34;;;;;;;2.60;2.30;;;17.30;86.60;;;;;;5091331;27;20628;-77
2023/09/25 10:27:04;;;;;;;2.63;2.30;;;17.50;85.10;;;;;;5094591;27;20627;-78
2023/09/25 10:29:33;;;;;;;2.10;2.00;;;17.80;85.80;;;;;;5097237;27;20629;-79
2023/09/25 10:32:01;;;;;;;2.07;1.97;;;17.80;86.00;;;;;;5093765;27;21220;-79
2023/09/25 10:34:29;;;;;;;3.80;2.67;;;18.10;83.90;;;;;;5087066;27;20637;-77
2023/09/25 10:37:04;;;;;;;2.87;2.00;;;18.00;85.20;;;;;;5094636;27;20722;-78
2023/09/25 10:39:31;;;;;;;2.63;1.70;;;18.00;85.90;;;;;;5092204;27;21196;-78
2023/09/25 10:42:06;;;;;;;4.90;1.70;;;18.20;80.60;;;;;;5091927;27;20628;-78
2023/09/25 10:44:35;;;;;;;1.77;1.67;;;18.50;78.80;;;;;;5086661;27;20730;-78
2023/09/25 10:47:08;;;;;;;2.53;1.77;;;18.60;79.00;;;;;;5091489;27;20780;-78
2023/09/25 10:49:39;;;;;;;1.90;1.60;;;18.50;77.90;;;;;;5089484;27;20618;-78
2023/09/25 10:52:06;;;;;;;2.60;2.10;;;18.50;77.20;;;;;;5101337;27;20652;-77
2023/09/25 10:54:34;;;;;;;1.53;1.43;;;18.50;78.30;;;;;;5097908;27;20625;-78
2023/09/25 10:57:02;;;;;;;2.10;1.80;;;18.60;75.60;;;;;;5091499;27;20639;-77
2023/09/25 10:59:30;;;;;;;3.37;2.37;;;18.60;76.60;;;;;;5096552;27;20622;-77
2023/09/25 11:01:57;;;;;;;3.67;2.00;;;18.60;75.30;;;;;;5091944;27;20625;-76
2023/09/25 11:04:23;;;;;;;1.93;1.73;;;18.70;76.80;;;;;;5089936;27;20635;-76
2023/09/25 11:06:51;;;;;;;3.10;2.90;;;18.50;80.00;;;;;;5094643;27;20638;-77
2023/09/25 11:09:18;;;;;;;4.63;2.73;;;18.40;82.40;;;;;;5095085;27;20637;-76
2023/09/25 11:11:45;;;;;;;2.47;2.27;;;18.30;83.10;;;;;;5097496;27;20723;-76
2023/09/25 11:14:14;;;;;;;2.90;2.43;;;18.60;82.60;;;;;;5084547;27;20643;-76
2023/09/25 11:16:41;;;;;;;3.13;2.40;;;18.70;81.70;;;;;;5095921;28;20635;-75
2023/09/25 11:19:11;;;;;;;3.30;2.57;;;18.60;80.70;;;;;;5098049;27;20632;-75
2023/09/25 11:21:39;;;;;;;2.00;1.90;;;18.40;81.80;;;;;;5077822;28;21140;-76
2023/09/25 11:24:08;;;;;;;2.00;1.70;;;18.30;82.10;;;;;;5082247;28;20973;-75
2023/09/25 11:26:39;;;;;;;3.03;2.07;;;18.60;79.60;;;;;;5084375;28;20628;-76
2023/09/25 11:29:09;;;;;;;2.47;2.20;;;18.70;81.70;;;;;;5091668;28;20610;-76
2023/09/25 11:31:54;;;;;;;11.00;2.40;;;18.60;79.60;;;;;;5101132;28;20640;-76
2023/09/25 11:34:21;;;;;;;2.23;2.03;;;18.70;78.70;;;;;;5104674;28;20625;-76
2023/09/25 11:36:48;;;;;;;1.97;1.63;;;18.80;76.20;;;;;;5096237;28;20625;-76
2023/09/25 11:39:15;;;;;;;2.40;2.20;;;19.00;75.30;;;;;;5093004;28;20629;-76
2023/09/25 11:41:42;;;;;;;1.97;1.87;;;18.90;74.20;;;;;;5089865;27;20707;-76
2023/09/25 11:44:09;;;;;;;2.30;2.10;;;18.80;77.30;;;;;;5092406;28;20659;-77
2023/09/25 11:46:36;;;;;;;5.50;1.80;;;19.00;76.90;;;;;;5093958;27;20627;-76
2023/09/25 11:49:04;;;;;;;1.53;1.43;;;19.00;76.70;;;;;;5089091;27;20625;-77
2023/09/25 11:51:33;;;;;;;3.33;1.67;;;19.10;75.00;;;;;;5094758;27;20624;-77
2023/09/25 11:54:00;;;;;;;3.07;2.20;;;19.00;74.00;;;;;;5095663;27;21374;-77
2023/09/25 11:56:27;;;;;;;1.70;1.60;;;19.10;71.90;;;;;;5093131;27;20663;-77
2023/09/25 11:58:53;;;;;;;1.53;1.43;;;19.10;73.10;;;;;;5097676;27;20726;-77
2023/09/25 12:01:21;;;;;;;4.00;1.90;;;19.20;75.00;;;;;;5104588;27;20693;-77
2023/09/25 12:03:48;;;;;;;1.97;1.57;;;19.20;74.80;;;;;;5102206;27;20630;-76
2023/09/25 12:06:16;;;;;;;2.60;2.40;;;19.10;74.20;;;;;;5099797;27;21199;-76
2023/09/25 12:08:43;;;;;;;2.03;1.83;;;19.30;74.60;;;;;;5097575;27;20635;-76
2023/09/25 12:11:10;;;;;;;3.63;2.37;;;19.40;74.10;;;;;;5098407;27;21795;-77
2023/09/25 12:13:37;;;;;;;1.70;1.60;;;19.40;72.80;;;;;;5099292;27;20638;-77
2023/09/25 12:16:04;;;;;;;6.13;2.20;;;19.30;74.90;;;;;;5100047;27;20820;-77
2023/09/25 12:18:31;;;;;;;2.20;2.00;;;19.30;74.80;;;;;;5099298;27;20722;-77
2023/09/25 12:20:58;;;;;;;4.93;2.53;;;19.40;76.10;;;;;;5101862;27;21291;-77
2023/09/25 12:23:26;;;;;;;8.13;2.00;;;19.50;75.80;;;;;;5097341;27;20626;-77
2023/09/25 12:25:53;;;;;;;1.60;1.50;;;19.60;75.00;;;;;;5101197;27;20635;-77
2023/09/25 12:28:20;;;;;;;1.73;1.63;;;19.60;73.70;;;;;;5086104;27;21592;-77
2023/09/25 12:30:47;;;;;;;2.23;2.03;;;19.70;73.00;;;;;;5099289;27;20618;-77
2023/09/25 12:33:20;;;;;;;5.43;2.03;;;19.70;74.00;;;;;;5096894;27;20629;-77
2023/09/25 12:35:46;;;;;;;1.73;1.60;;;19.70;74.40;;;;;;5097998;27;21402;-77
2023/09/25 12:38:13;;;;;;;1.57;1.47;;;19.70;73.00;;;;;;5086141;27;21634;-77
2023/09/25 12:40:41;;;;;;;2.10;1.70;;;19.70;72.80;;;;;;5102417;27;21251;-77
2023/09/25 12:43:08;;;;;;;3.03;2.03;;;19.70;72.50;;;;;;5103441;27;20636;-75
2023/09/25 12:45:35;;;;;;;1.67;1.57;;;19.70;72.20;;;;;;5093343;27;20754;-76
2023/09/25 12:48:07;;;;;;;2.10;1.93;;;19.70;72.10;;;;;;5095530;27;20627;-76
2023/09/25 12:50:34;;;;;;;2.03;1.87;;;19.70;72.00;;;;;;5101613;27;20623;-77
2023/09/25 12:53:04;;;;;;;2.03;1.93;;;19.80;73.60;;;;;;5103390;27;20628;-77
2023/09/25 12:55:33;;;;;;;2.03;1.57;;;19.80;71.10;;;;;;5099205;27;20645;-77